Time;durP1;ratioP1;P1;durP2;ratioP2;P2;SDS_P1;SDS_P2;PMS_P1;PMS_P2;Temp;Humidity;BMP_temperature;BMP_pressure;BME280_temperature;BME280_humidity;BME280_pressure;Samples;Min_cycle;Max_cycle;Signal;HPM_P1;HPM_P2
2023/04/21 00:00:58;;;;;;;31.27;20.67;;;9.80;99.90;;;;;;5019462;28;20030;-59
2023/04/21 00:03:25;;;;;;;26.52;20.25;;;9.80;99.90;;;;;;5035713;28;20041;-58
2023/04/21 00:05:50;;;;;;;30.20;19.15;;;9.80;99.90;;;;;;5040304;28;20100;-58
2023/04/21 00:08:17;;;;;;;27.63;19.63;;;9.80;99.90;;;;;;5043160;28;20044;-58
2023/04/21 00:10:43;;;;;;;29.02;20.13;;;9.80;99.90;;;;;;5033587;28;20046;-58
2023/04/21 00:13:09;;;;;;;27.88;18.48;;;9.80;99.90;;;;;;5022428;28;20042;-59
2023/04/21 00:15:35;;;;;;;27.55;19.55;;;9.80;99.90;;;;;;5022562;28;20038;-58
2023/04/21 00:18:02;;;;;;;28.05;18.83;;;9.70;99.90;;;;;;5022175;28;20125;-58
2023/04/21 00:20:28;;;;;;;28.85;20.10;;;9.70;99.90;;;;;;5022069;28;20066;-57
2023/04/21 00:22:58;;;;;;;27.08;19.02;;;9.60;99.90;;;;;;5027970;28;20281;-59
2023/04/21 00:25:24;;;;;;;25.02;18.42;;;9.60;99.90;;;;;;5025119;28;20097;-58
2023/04/21 00:27:50;;;;;;;25.85;19.23;;;9.60;99.90;;;;;;5022182;28;20096;-57
2023/04/21 00:30:16;;;;;;;28.60;18.23;;;9.60;99.90;;;;;;5022551;28;20082;-58
2023/04/21 00:32:42;;;;;;;25.30;19.05;;;9.50;99.90;;;;;;5029618;28;20037;-59
2023/04/21 00:35:08;;;;;;;26.92;18.02;;;9.50;99.90;;;;;;5034852;28;20037;-59
2023/04/21 00:37:35;;;;;;;27.92;19.55;;;9.50;99.90;;;;;;5030315;28;20079;-58
2023/04/21 00:40:00;;;;;;;28.67;19.40;;;9.50;99.90;;;;;;5055370;28;20041;-59
2023/04/21 00:42:26;;;;;;;29.23;18.90;;;9.50;99.90;;;;;;5060986;28;20041;-59
2023/04/21 00:44:52;;;;;;;28.55;18.77;;;9.50;99.90;;;;;;5041327;28;20822;-57
2023/04/21 00:47:18;;;;;;;24.00;18.02;;;9.50;99.90;;;;;;5024433;28;20523;-56
2023/04/21 00:49:45;;;;;;;26.05;18.13;;;9.40;99.90;;;;;;5041686;28;20042;-57
2023/04/21 00:52:12;;;;;;;30.73;18.70;;;9.40;99.90;;;;;;5038829;28;20049;-58
2023/04/21 00:54:38;;;;;;;27.85;17.98;;;9.40;99.90;;;;;;5041900;28;20053;-58
2023/04/21 00:57:06;;;;;;;25.27;17.77;;;9.30;99.90;;;;;;5041715;28;20037;-58
2023/04/21 00:59:32;;;;;;;26.73;15.18;;;9.30;99.90;;;;;;5040886;28;20045;-58
2023/04/21 01:02:00;;;;;;;23.70;17.40;;;9.30;99.90;;;;;;5038824;28;20064;-59
2023/04/21 01:04:27;;;;;;;26.45;16.80;;;9.30;99.90;;;;;;5037903;28;20148;-58
2023/04/21 01:06:52;;;;;;;25.77;17.25;;;9.30;99.90;;;;;;5041161;28;20053;-59
2023/04/21 01:09:19;;;;;;;26.25;15.80;;;9.20;99.90;;;;;;5038859;28;20069;-58
2023/04/21 01:12:12;;;;;;;27.95;17.77;;;9.30;99.90;;;;;;5041270;28;20049;-58
2023/04/21 01:14:39;;;;;;;26.17;17.85;;;9.20;99.90;;;;;;5025579;28;20058;-58
2023/04/21 01:17:06;;;;;;;23.40;15.40;;;9.20;99.90;;;;;;5029734;28;20153;-59
2023/04/21 01:19:38;;;;;;;28.50;17.25;;;9.20;99.90;;;;;;5035610;28;20053;-58
2023/04/21 01:22:05;;;;;;;24.08;14.88;;;9.20;99.90;;;;;;5035162;28;20052;-59
2023/04/21 01:24:42;;;;;;;27.83;15.68;;;9.20;99.90;;;;;;5036162;28;20550;-57
2023/04/21 01:27:12;;;;;;;28.90;16.08;;;9.20;99.90;;;;;;5028162;28;20092;-59
2023/04/21 01:29:39;;;;;;;23.60;16.08;;;9.20;99.90;;;;;;5031288;28;20057;-59
2023/04/21 01:32:11;;;;;;;29.60;16.60;;;9.10;99.90;;;;;;5028159;28;20054;-58
2023/04/21 01:34:37;;;;;;;23.30;15.23;;;9.20;99.90;;;;;;5037355;28;20075;-58
2023/04/21 01:37:06;;;;;;;25.52;15.25;;;9.10;99.90;;;;;;5025653;28;20033;-58
2023/04/21 01:39:31;;;;;;;20.65;14.27;;;9.00;99.90;;;;;;5038385;28;20417;-59
2023/04/21 01:41:57;;;;;;;25.48;14.80;;;9.10;99.90;;;;;;5040833;28;20045;-58
2023/04/21 01:44:25;;;;;;;23.50;14.48;;;9.10;99.90;;;;;;5059163;28;20530;-58
2023/04/21 01:46:51;;;;;;;25.50;15.27;;;9.10;99.90;;;;;;5060759;28;20041;-58
2023/04/21 01:49:16;;;;;;;23.45;15.07;;;9.10;99.90;;;;;;5060409;28;20444;-58
2023/04/21 01:51:42;;;;;;;25.08;15.25;;;9.20;99.90;;;;;;5061157;28;20064;-59
2023/04/21 01:54:08;;;;;;;20.85;13.77;;;9.20;99.90;;;;;;5048088;28;20549;-58
2023/04/21 01:56:34;;;;;;;19.85;14.40;;;9.10;99.90;;;;;;5046267;28;20104;-58
2023/04/21 01:59:00;;;;;;;24.02;14.75;;;9.20;99.90;;;;;;5003012;28;20123;-59
2023/04/21 02:01:26;;;;;;;22.40;14.60;;;9.20;99.90;;;;;;5019776;28;20038;-59
2023/04/21 02:03:51;;;;;;;24.40;14.35;;;9.10;99.90;;;;;;5020616;28;20034;-58
2023/04/21 02:06:17;;;;;;;21.85;14.05;;;9.20;99.90;;;;;;5032890;28;20049;-58
2023/04/21 02:08:43;;;;;;;23.63;13.82;;;9.30;99.90;;;;;;5039102;28;20056;-59
2023/04/21 02:11:08;;;;;;;23.73;13.73;;;9.20;99.90;;;;;;5038594;28;20045;-58
2023/04/21 02:13:34;;;;;;;25.30;14.32;;;9.20;99.90;;;;;;5023890;28;20060;-58
2023/04/21 02:16:00;;;;;;;20.73;13.35;;;9.30;99.90;;;;;;5007053;28;20049;-59
2023/04/21 02:18:28;;;;;;;18.77;13.02;;;9.30;99.90;;;;;;5025029;28;20626;-58
2023/04/21 02:20:55;;;;;;;21.55;13.50;;;9.30;99.90;;;;;;5025184;28;20041;-58
2023/04/21 02:23:20;;;;;;;21.40;12.80;;;9.30;99.90;;;;;;5024977;28;20052;-58
2023/04/21 02:25:46;;;;;;;22.58;14.77;;;9.40;99.90;;;;;;5025078;28;20511;-58
2023/04/21 02:28:12;;;;;;;19.02;13.45;;;9.30;99.90;;;;;;5032663;28;20076;-58
2023/04/21 02:30:37;;;;;;;24.02;14.35;;;9.30;99.90;;;;;;5037131;28;20038;-59
2023/04/21 02:33:03;;;;;;;18.60;12.95;;;9.40;99.90;;;;;;5035306;28;20520;-59
2023/04/21 02:35:29;;;;;;;21.63;13.00;;;9.40;99.90;;;;;;5036347;28;20111;-59
2023/04/21 02:37:54;;;;;;;23.42;13.40;;;9.40;99.90;;;;;;5035373;28;20041;-59
2023/04/21 02:40:20;;;;;;;21.40;13.82;;;9.40;99.90;;;;;;5027871;28;20042;-59
2023/04/21 02:42:46;;;;;;;17.80;12.45;;;9.50;99.90;;;;;;5028421;28;20045;-58
2023/04/21 02:45:11;;;;;;;19.58;12.52;;;9.50;99.90;;;;;;5052302;28;20152;-57
2023/04/21 02:47:37;;;;;;;19.40;11.90;;;9.50;99.90;;;;;;5040556;28;20048;-59
2023/04/21 02:50:03;;;;;;;20.17;12.95;;;9.50;99.90;;;;;;5029489;28;20033;-58
2023/04/21 02:52:29;;;;;;;17.40;12.52;;;9.50;99.90;;;;;;5037979;28;20044;-58
2023/04/21 02:54:54;;;;;;;17.95;11.60;;;9.50;99.90;;;;;;5039776;28;20037;-59
2023/04/21 02:57:20;;;;;;;20.38;11.95;;;9.50;99.90;;;;;;5038221;28;20045;-59
2023/04/21 02:59:46;;;;;;;18.02;11.90;;;9.60;99.90;;;;;;5004290;28;20053;-58
2023/04/21 03:02:11;;;;;;;21.80;12.73;;;9.50;99.90;;;;;;5037574;28;20053;-58
2023/04/21 03:04:38;;;;;;;23.05;12.23;;;9.60;99.90;;;;;;5032223;28;20128;-60
2023/04/21 03:07:03;;;;;;;22.88;12.82;;;9.50;99.90;;;;;;5038966;28;20064;-58
2023/04/21 03:09:29;;;;;;;22.15;12.63;;;9.50;99.90;;;;;;5038814;28;20041;-59
2023/04/21 03:11:55;;;;;;;17.75;12.05;;;9.50;99.90;;;;;;5039113;28;20045;-58
2023/04/21 03:14:20;;;;;;;23.98;13.05;;;9.50;99.90;;;;;;5037687;28;20054;-59
2023/04/21 03:16:46;;;;;;;19.95;12.38;;;9.50;99.90;;;;;;5027516;28;20129;-58
2023/04/21 03:19:11;;;;;;;20.00;12.50;;;9.50;99.90;;;;;;5006819;28;20037;-58
2023/04/21 03:21:37;;;;;;;18.58;12.32;;;9.50;99.90;;;;;;5035317;28;20041;-58
2023/04/21 03:24:05;;;;;;;18.65;12.57;;;9.50;99.90;;;;;;5028377;28;20041;-58
2023/04/21 03:26:30;;;;;;;17.45;12.65;;;9.40;99.90;;;;;;5031605;28;20046;-59
2023/04/21 03:28:56;;;;;;;17.48;12.68;;;9.40;99.90;;;;;;5012137;28;20052;-59
2023/04/21 03:31:22;;;;;;;21.45;12.23;;;9.40;99.90;;;;;;5019667;28;20038;-59
2023/04/21 03:33:47;;;;;;;17.40;11.55;;;9.40;99.90;;;;;;5037221;28;20124;-59
2023/04/21 03:36:13;;;;;;;17.10;10.98;;;9.40;99.90;;;;;;5037194;28;20033;-59
2023/04/21 03:38:39;;;;;;;18.05;12.15;;;9.40;99.90;;;;;;5022882;28;20076;-59
2023/04/21 03:41:04;;;;;;;17.15;11.88;;;9.40;99.90;;;;;;5001214;28;20079;-58
2023/04/21 03:43:30;;;;;;;17.98;11.50;;;9.40;99.90;;;;;;5034542;28;20041;-58
2023/04/21 03:45:56;;;;;;;17.80;11.27;;;9.50;99.90;;;;;;5019077;28;20521;-58
2023/04/21 03:48:21;;;;;;;18.17;12.25;;;9.50;99.90;;;;;;5033236;28;20073;-59
2023/04/21 03:50:47;;;;;;;18.70;10.93;;;9.50;99.90;;;;;;5038522;28;20045;-57
2023/04/21 03:53:13;;;;;;;17.83;11.63;;;9.50;99.90;;;;;;5037475;28;20045;-59
2023/04/21 03:55:38;;;;;;;22.83;12.13;;;9.50;99.90;;;;;;5037594;28;20186;-59
2023/04/21 03:58:04;;;;;;;20.92;10.77;;;9.50;99.90;;;;;;5037940;28;20056;-58
2023/04/21 04:00:30;;;;;;;18.02;10.68;;;9.50;99.90;;;;;;5023386;28;20049;-59
2023/04/21 04:02:55;;;;;;;16.80;10.98;;;9.60;99.90;;;;;;5019002;28;20049;-58
2023/04/21 04:05:21;;;;;;;18.95;11.35;;;9.60;99.90;;;;;;5037597;28;20037;-59
2023/04/21 04:07:47;;;;;;;16.67;10.07;;;9.50;99.90;;;;;;5038028;28;20580;-58
2023/04/21 04:10:12;;;;;;;15.27;10.65;;;9.50;99.90;;;;;;5037602;28;20091;-58
2023/04/21 04:12:38;;;;;;;17.75;10.63;;;9.50;99.90;;;;;;5033630;28;20065;-57
2023/04/21 04:15:05;;;;;;;15.80;9.90;;;9.50;99.90;;;;;;5036715;28;20041;-58
2023/04/21 04:17:30;;;;;;;16.33;10.50;;;9.50;99.90;;;;;;5031674;28;20041;-58
2023/04/21 04:19:56;;;;;;;18.00;10.57;;;9.50;99.90;;;;;;5037762;28;20072;-58
2023/04/21 04:22:21;;;;;;;18.48;10.50;;;9.50;99.90;;;;;;5037656;28;20042;-58
2023/04/21 04:24:47;;;;;;;17.63;11.20;;;9.50;99.90;;;;;;5038399;28;20038;-59
2023/04/21 04:27:13;;;;;;;18.00;10.85;;;9.40;99.90;;;;;;5017738;28;20037;-59
2023/04/21 04:29:39;;;;;;;14.65;10.23;;;9.40;99.90;;;;;;5035851;28;20036;-58
2023/04/21 04:32:09;;;;;;;14.90;10.57;;;9.40;99.90;;;;;;5034995;28;20045;-58
2023/04/21 04:34:36;;;;;;;14.35;10.23;;;9.50;99.90;;;;;;5019567;28;20046;-57
2023/04/21 04:37:03;;;;;;;14.73;10.00;;;9.40;99.90;;;;;;5019948;28;20425;-58
2023/04/21 04:39:30;;;;;;;16.30;10.07;;;9.40;99.90;;;;;;5028688;28;20045;-58
2023/04/21 04:41:55;;;;;;;15.43;9.82;;;9.40;99.90;;;;;;5028805;28;20056;-59
2023/04/21 04:44:22;;;;;;;14.18;10.20;;;9.40;99.90;;;;;;5053176;28;20049;-60
2023/04/21 04:46:48;;;;;;;16.38;10.90;;;9.40;99.90;;;;;;5040614;28;20044;-59
2023/04/21 04:49:14;;;;;;;16.00;10.07;;;9.40;99.90;;;;;;5023100;28;20536;-59
2023/04/21 04:51:40;;;;;;;17.58;10.70;;;9.50;99.90;;;;;;5004556;28;20106;-58
2023/04/21 04:54:05;;;;;;;18.95;10.50;;;9.50;99.90;;;;;;5022072;28;20045;-58
2023/04/21 04:56:31;;;;;;;20.48;10.35;;;9.60;99.90;;;;;;5037617;28;20030;-58
2023/04/21 04:58:57;;;;;;;16.45;10.60;;;9.60;99.90;;;;;;5041693;28;20060;-59
2023/04/21 05:01:28;;;;;;;20.63;10.77;;;9.60;99.90;;;;;;5039003;28;20049;-60
2023/04/21 05:03:55;;;;;;;15.90;10.60;;;9.60;99.90;;;;;;5035117;28;20045;-59
2023/04/21 05:06:20;;;;;;;17.23;9.90;;;9.60;99.90;;;;;;5016508;28;20490;-59
2023/04/21 05:08:46;;;;;;;19.58;10.88;;;9.70;99.90;;;;;;5012037;28;20075;-59
2023/04/21 05:11:12;;;;;;;18.42;10.43;;;9.70;99.90;;;;;;5019187;28;20071;-59
2023/04/21 05:13:37;;;;;;;22.38;10.80;;;9.60;99.90;;;;;;5024035;28;20530;-59
2023/04/21 05:16:03;;;;;;;14.63;9.23;;;9.70;99.90;;;;;;5027560;28;20049;-58
2023/04/21 05:18:29;;;;;;;18.27;10.30;;;9.70;99.90;;;;;;5032576;28;20057;-59
2023/04/21 05:20:55;;;;;;;21.55;10.57;;;9.80;99.90;;;;;;5041471;28;20046;-59
2023/04/21 05:23:21;;;;;;;17.50;10.10;;;9.80;99.90;;;;;;5009993;28;20080;-58
2023/04/21 05:25:47;;;;;;;17.33;11.10;;;9.80;99.90;;;;;;5040989;28;20049;-58
2023/04/21 05:28:14;;;;;;;18.17;11.25;;;9.90;99.90;;;;;;5039146;28;20037;-62
2023/04/21 05:30:40;;;;;;;20.23;10.82;;;9.90;99.90;;;;;;5039015;28;20069;-59
2023/04/21 05:33:06;;;;;;;18.23;9.73;;;9.90;99.90;;;;;;5031646;28;20386;-58
2023/04/21 05:35:32;;;;;;;17.80;9.77;;;9.90;99.90;;;;;;5002661;28;20120;-58
2023/04/21 05:37:57;;;;;;;18.25;10.55;;;9.90;99.90;;;;;;5030601;28;20046;-59
2023/04/21 05:40:23;;;;;;;19.65;10.88;;;9.90;99.90;;;;;;5035704;28;20051;-58
2023/04/21 05:42:49;;;;;;;18.67;10.52;;;9.90;99.90;;;;;;5034125;28;20117;-58
2023/04/21 05:45:14;;;;;;;16.15;9.73;;;10.00;99.90;;;;;;5015194;28;20045;-58
2023/04/21 05:47:40;;;;;;;16.80;10.32;;;10.00;99.90;;;;;;5020906;28;20048;-59
2023/04/21 05:50:07;;;;;;;20.35;10.68;;;10.00;99.90;;;;;;5029368;28;20038;-59
2023/04/21 05:52:33;;;;;;;17.50;9.80;;;10.10;99.90;;;;;;5022296;28;20536;-59
2023/04/21 05:55:00;;;;;;;17.13;10.68;;;10.10;99.90;;;;;;5029955;28;20069;-56
2023/04/21 05:57:26;;;;;;;16.10;8.63;;;10.20;99.90;;;;;;5038308;28;20172;-58
2023/04/21 05:59:51;;;;;;;15.88;9.73;;;10.30;99.90;;;;;;5036857;28;20054;-58
2023/04/21 06:02:17;;;;;;;16.58;9.32;;;10.30;99.90;;;;;;5009810;28;20132;-58
2023/04/21 06:04:43;;;;;;;15.45;9.73;;;10.40;99.90;;;;;;5027407;28;20064;-57
2023/04/21 06:07:12;;;;;;;14.05;9.10;;;10.40;99.90;;;;;;5018455;28;20082;-57
2023/04/21 06:09:39;;;;;;;14.07;9.32;;;10.50;99.90;;;;;;5021914;28;20492;-57
2023/04/21 06:12:05;;;;;;;17.20;10.45;;;10.50;99.90;;;;;;5037030;28;20037;-58
2023/04/21 06:14:30;;;;;;;16.77;9.50;;;10.60;99.90;;;;;;5031460;28;20026;-58
2023/04/21 06:16:56;;;;;;;16.67;9.60;;;10.60;99.90;;;;;;5019693;28;20064;-58
2023/04/21 06:19:22;;;;;;;15.98;9.10;;;10.60;99.90;;;;;;5039330;28;20045;-58
2023/04/21 06:21:48;;;;;;;17.38;9.45;;;10.60;99.90;;;;;;5057523;28;20318;-58
2023/04/21 06:24:14;;;;;;;17.55;10.07;;;10.60;99.90;;;;;;5015055;28;20034;-57
2023/04/21 06:26:40;;;;;;;16.00;8.82;;;10.60;99.90;;;;;;5019649;28;20049;-57
2023/04/21 06:29:06;;;;;;;14.65;10.05;;;10.70;99.90;;;;;;5020020;28;20280;-57
2023/04/21 06:31:31;;;;;;;14.43;9.50;;;11.30;99.90;;;;;;5031248;28;20513;-57
2023/04/21 06:33:57;;;;;;;15.95;9.52;;;10.70;99.90;;;;;;5035326;28;20045;-57
2023/04/21 06:36:23;;;;;;;14.68;9.30;;;10.80;99.90;;;;;;5039346;28;20044;-58
2023/04/21 06:38:48;;;;;;;16.85;9.48;;;10.80;99.90;;;;;;5030645;28;20045;-57
2023/04/21 06:41:14;;;;;;;16.00;9.20;;;10.80;99.90;;;;;;5003618;28;20080;-57
2023/04/21 06:43:40;;;;;;;15.35;9.75;;;10.90;99.90;;;;;;5036108;28;20121;-58
2023/04/21 06:46:06;;;;;;;17.30;9.43;;;10.90;99.90;;;;;;5036321;28;20049;-58
2023/04/21 06:48:32;;;;;;;17.80;9.38;;;10.90;99.90;;;;;;5035422;28;20038;-58
2023/04/21 06:50:57;;;;;;;15.40;9.40;;;11.00;99.90;;;;;;5020777;28;20042;-58
2023/04/21 06:53:23;;;;;;;15.48;9.38;;;11.00;99.90;;;;;;5034902;28;20079;-57
2023/04/21 06:55:49;;;;;;;16.15;9.07;;;11.00;99.90;;;;;;5037897;28;20375;-57
2023/04/21 06:58:15;;;;;;;16.15;8.68;;;11.00;99.90;;;;;;5035337;28;20052;-58
2023/04/21 07:00:40;;;;;;;13.77;9.35;;;11.10;99.90;;;;;;5038162;28;20041;-58
2023/04/21 07:03:06;;;;;;;14.13;9.93;;;11.10;99.90;;;;;;5035025;28;20675;-58
2023/04/21 07:05:32;;;;;;;19.60;10.25;;;11.10;99.90;;;;;;5038069;28;20050;-59
2023/04/21 07:08:00;;;;;;;14.55;9.98;;;11.20;99.90;;;;;;5033747;28;20111;-58
2023/04/21 07:10:27;;;;;;;15.43;9.05;;;11.20;99.90;;;;;;5030566;28;20068;-57
2023/04/21 07:12:53;;;;;;;15.43;9.85;;;11.30;99.90;;;;;;5019884;28;20144;-57
2023/04/21 07:15:19;;;;;;;18.10;9.52;;;11.40;99.90;;;;;;5038877;28;20041;-58
2023/04/21 07:17:45;;;;;;;15.18;10.35;;;11.50;99.90;;;;;;5038928;28;20049;-57
2023/04/21 07:20:11;;;;;;;15.70;9.82;;;11.60;99.90;;;;;;5028451;28;20038;-58
2023/04/21 07:22:37;;;;;;;21.10;10.02;;;11.70;99.90;;;;;;5018635;28;20042;-58
2023/04/21 07:25:07;;;;;;;17.30;9.05;;;11.80;99.90;;;;;;5019069;28;20131;-57
2023/04/21 07:27:33;;;;;;;16.27;9.98;;;11.90;99.90;;;;;;5026335;28;20052;-58
2023/04/21 07:29:59;;;;;;;19.27;11.27;;;12.00;99.90;;;;;;5036140;28;20046;-58
2023/04/21 07:32:25;;;;;;;17.88;8.80;;;12.10;99.90;;;;;;5009581;28;20041;-57
2023/04/21 07:34:50;;;;;;;18.95;10.73;;;12.80;99.90;;;;;;5035771;28;20041;-57
2023/04/21 07:37:17;;;;;;;16.25;9.35;;;12.20;99.90;;;;;;5027342;28;20234;-58
2023/04/21 07:39:42;;;;;;;12.60;9.00;;;12.30;99.90;;;;;;5001974;28;20091;-58
2023/04/21 07:42:09;;;;;;;14.70;9.25;;;12.30;99.90;;;;;;5015743;28;20577;-59
2023/04/21 07:44:35;;;;;;;16.00;9.68;;;12.40;99.90;;;;;;5029108;28;20054;-60
2023/04/21 07:47:01;;;;;;;16.38;9.95;;;12.60;99.90;;;;;;5032347;28;20110;-59
2023/04/21 07:49:27;;;;;;;16.00;9.95;;;12.60;99.90;;;;;;5030933;28;20037;-60
2023/04/21 07:51:52;;;;;;;16.10;8.90;;;12.70;99.90;;;;;;5030240;28;20077;-60
2023/04/21 07:54:18;;;;;;;12.70;8.85;;;12.90;99.90;;;;;;5014207;28;20099;-60
2023/04/21 07:56:43;;;;;;;11.77;8.55;;;12.90;99.90;;;;;;5030953;28;20030;-60
2023/04/21 07:59:09;;;;;;;14.07;9.77;;;13.10;99.90;;;;;;5014192;28;20092;-60
2023/04/21 08:01:35;;;;;;;16.02;9.70;;;13.20;99.90;;;;;;5024072;28;20069;-60
2023/04/21 08:04:01;;;;;;;19.65;9.65;;;13.30;99.90;;;;;;5027495;28;20101;-61
2023/04/21 08:06:26;;;;;;;15.77;9.52;;;13.30;99.90;;;;;;5035491;28;20056;-60
2023/04/21 08:08:54;;;;;;;13.32;8.77;;;13.20;99.90;;;;;;5026712;28;20613;-58
2023/04/21 08:11:21;;;;;;;14.30;9.25;;;13.30;99.90;;;;;;5035250;28;20069;-59
2023/04/21 08:13:47;;;;;;;14.98;9.00;;;13.30;99.90;;;;;;5023406;28;20053;-60
2023/04/21 08:16:12;;;;;;;10.68;8.18;;;13.20;99.90;;;;;;5032212;28;20121;-60
2023/04/21 08:18:38;;;;;;;14.40;9.63;;;13.30;99.90;;;;;;5032818;28;20138;-60
2023/04/21 08:21:04;;;;;;;15.48;9.77;;;13.40;99.90;;;;;;5030648;28;20076;-60
2023/04/21 08:23:30;;;;;;;12.40;9.57;;;13.50;99.90;;;;;;5036507;28;20041;-60
2023/04/21 08:25:56;;;;;;;17.52;10.60;;;13.50;99.90;;;;;;5029435;28;20052;-60
2023/04/21 08:28:21;;;;;;;17.80;10.55;;;13.60;99.90;;;;;;5037531;28;20136;-60
2023/04/21 08:30:47;;;;;;;15.80;9.45;;;13.60;99.90;;;;;;5038686;28;20078;-59
2023/04/21 08:33:13;;;;;;;14.25;9.27;;;13.70;99.90;;;;;;5032865;28;20046;-59
2023/04/21 08:35:40;;;;;;;13.55;8.95;;;14.00;99.90;;;;;;5036140;28;20077;-58
2023/04/21 08:38:07;;;;;;;19.00;10.65;;;14.30;99.90;;;;;;5038677;28;20053;-59
2023/04/21 08:40:36;;;;;;;17.42;9.95;;;14.60;99.90;;;;;;5014466;28;20067;-58
2023/04/21 08:43:06;;;;;;;16.88;9.82;;;14.90;99.90;;;;;;5034385;28;20034;-58
2023/04/21 08:45:33;;;;;;;18.58;8.82;;;15.10;99.90;;;;;;5031374;28;20042;-58
2023/04/21 08:48:00;;;;;;;14.65;9.85;;;15.30;99.90;;;;;;5028642;28;20049;-58
2023/04/21 08:50:30;;;;;;;15.85;10.20;;;15.50;99.90;;;;;;5034843;28;20045;-57
2023/04/21 08:52:56;;;;;;;19.20;10.48;;;15.60;99.90;;;;;;5020701;28;20172;-58
2023/04/21 08:55:28;;;;;;;17.38;10.40;;;15.60;99.90;;;;;;5031670;28;20473;-57
2023/04/21 08:57:53;;;;;;;16.60;9.82;;;15.70;99.90;;;;;;5024720;28;20049;-57
2023/04/21 09:00:20;;;;;;;16.10;10.77;;;15.60;99.90;;;;;;5007368;28;20551;-57
2023/04/21 09:02:56;;;;;;;16.88;9.98;;;15.50;99.90;;;;;;5014838;28;20049;-56
2023/04/21 09:05:24;;;;;;;17.77;10.90;;;15.50;99.90;;;;;;5034702;28;20061;-57
2023/04/21 09:07:51;;;;;;;15.02;10.52;;;15.40;99.90;;;;;;5007840;28;20105;-57
2023/04/21 09:10:25;;;;;;;18.52;10.98;;;15.50;99.90;;;;;;5033275;28;20057;-56
2023/04/21 09:12:53;;;;;;;18.83;10.70;;;15.60;99.90;;;;;;5032453;28;20120;-57
2023/04/21 09:15:22;;;;;;;16.77;9.27;;;15.70;99.90;;;;;;5019707;28;20035;-57
2023/04/21 09:17:54;;;;;;;16.98;10.15;;;15.80;99.90;;;;;;5027266;28;20054;-57
2023/04/21 09:20:21;;;;;;;16.10;10.02;;;15.90;99.90;;;;;;5037423;28;20052;-57
2023/04/21 09:22:51;;;;;;;13.75;10.23;;;15.90;99.90;;;;;;5023932;28;20045;-57
2023/04/21 09:25:19;;;;;;;14.80;8.88;;;16.00;99.90;;;;;;5025833;28;20057;-58
2023/04/21 09:27:46;;;;;;;15.30;9.73;;;16.20;99.90;;;;;;5030922;28;20086;-56
2023/04/21 09:30:12;;;;;;;17.40;9.73;;;16.20;99.90;;;;;;5036365;28;20056;-56
2023/04/21 09:32:41;;;;;;;18.38;10.75;;;16.20;99.90;;;;;;5034848;28;20101;-56
2023/04/21 09:35:10;;;;;;;15.57;10.13;;;16.20;99.90;;;;;;5033068;28;20037;-57
2023/04/21 09:37:37;;;;;;;15.80;9.63;;;16.20;99.90;;;;;;5037151;28;20442;-57
2023/04/21 09:40:03;;;;;;;15.35;9.80;;;16.20;99.90;;;;;;5012225;28;20033;-57
2023/04/21 09:42:29;;;;;;;15.75;10.07;;;16.30;99.90;;;;;;5029119;28;20051;-58
2023/04/21 09:44:55;;;;;;;16.30;10.60;;;16.40;99.90;;;;;;5033505;28;20060;-57
2023/04/21 09:47:22;;;;;;;19.02;10.32;;;16.40;99.90;;;;;;5032246;28;20045;-56
2023/04/21 09:49:51;;;;;;;17.38;10.85;;;16.30;99.90;;;;;;5030002;28;20448;-57
2023/04/21 09:52:19;;;;;;;15.77;10.75;;;16.40;99.90;;;;;;5034431;28;20033;-57
2023/04/21 09:54:50;;;;;;;15.68;10.27;;;16.50;99.90;;;;;;5033980;28;20041;-56
2023/04/21 09:57:23;;;;;;;16.98;11.10;;;16.70;99.90;;;;;;5038682;28;20042;-57
2023/04/21 09:59:55;;;;;;;15.30;11.23;;;16.80;99.90;;;;;;5037622;28;20041;-56
2023/04/21 10:02:25;;;;;;;20.52;12.18;;;16.90;99.90;;;;;;5017432;28;20053;-57
2023/04/21 10:04:51;;;;;;;17.42;11.25;;;16.90;99.90;;;;;;5024175;28;20750;-57
2023/04/21 10:07:17;;;;;;;16.92;12.05;;;17.00;99.90;;;;;;5014390;28;20576;-57
2023/04/21 10:09:46;;;;;;;16.05;10.32;;;17.10;99.90;;;;;;5033323;28;20046;-57
2023/04/21 10:12:13;;;;;;;18.70;11.35;;;17.20;99.90;;;;;;5030073;28;20037;-57
2023/04/21 10:14:39;;;;;;;17.35;11.77;;;17.30;99.90;;;;;;5037299;28;20398;-57
2023/04/21 10:17:09;;;;;;;18.25;11.55;;;17.20;99.90;;;;;;5037960;28;20056;-57
2023/04/21 10:19:40;;;;;;;16.13;11.38;;;17.10;99.90;;;;;;5035545;28;20050;-56
2023/04/21 10:22:09;;;;;;;18.88;11.32;;;16.90;99.90;;;;;;5038468;28;20158;-57
2023/04/21 10:24:39;;;;;;;16.73;11.32;;;16.90;99.90;;;;;;5034036;28;20072;-57
2023/04/21 10:27:28;;;;;;;17.67;12.20;;;16.80;99.90;;;;;;5034175;28;20533;-56
2023/04/21 10:29:54;;;;;;;16.02;11.68;;;16.80;99.90;;;;;;5019191;28;20041;-56
2023/04/21 10:32:39;;;;;;;18.40;11.20;;;16.70;99.90;;;;;;5009654;28;20128;-55
2023/04/21 10:35:16;;;;;;;18.10;10.77;;;16.70;99.90;;;;;;5029449;28;20046;-56
2023/04/21 10:37:42;;;;;;;22.83;11.02;;;16.70;99.90;;;;;;5036066;28;20056;-56
2023/04/21 10:40:35;;;;;;;19.05;11.30;;;16.60;99.90;;;;;;5035882;28;20044;-56
2023/04/21 10:43:03;;;;;;;16.10;10.85;;;16.50;99.90;;;;;;5018402;28;20062;-57
2023/04/21 10:45:30;;;;;;;17.77;12.23;;;16.50;99.90;;;;;;5028163;28;20037;-56
2023/04/21 10:48:00;;;;;;;18.50;11.35;;;16.40;99.90;;;;;;5030356;28;20136;-56
2023/04/21 10:50:30;;;;;;;19.60;12.15;;;16.30;99.90;;;;;;5031638;28;20476;-56
2023/04/21 10:53:08;;;;;;;18.35;11.82;;;16.20;99.90;;;;;;5022224;28;20042;-56
2023/04/21 10:55:34;;;;;;;17.02;11.07;;;16.20;99.90;;;;;;5018247;28;20073;-56
2023/04/21 10:58:08;;;;;;;19.67;12.02;;;16.10;99.90;;;;;;5026268;28;20084;-56
2023/04/21 11:00:36;;;;;;;22.13;11.85;;;16.10;99.90;;;;;;5015815;28;20042;-56
2023/04/21 11:03:05;;;;;;;18.80;11.52;;;16.10;99.90;;;;;;5017460;28;20045;-57
2023/04/21 11:05:39;;;;;;;20.85;11.77;;;16.10;99.90;;;;;;5015834;28;20050;-56
2023/04/21 11:08:11;;;;;;;16.83;11.73;;;16.10;99.90;;;;;;5017185;28;20089;-56
2023/04/21 11:11:03;;;;;;;16.98;11.63;;;16.10;99.90;;;;;;5024955;28;20433;-55
2023/04/21 11:13:32;;;;;;;20.85;12.98;;;16.10;99.90;;;;;;5012631;28;20049;-56
2023/04/21 11:16:05;;;;;;;23.63;11.40;;;16.10;99.90;;;;;;5005931;28;20057;-56
2023/04/21 11:18:42;;;;;;;17.67;11.35;;;16.20;99.90;;;;;;5019477;28;20097;-57
2023/04/21 11:21:23;;;;;;;19.13;12.48;;;16.40;99.90;;;;;;5019814;28;20038;-56
2023/04/21 11:23:56;;;;;;;17.20;11.95;;;16.40;99.90;;;;;;5018992;28;20041;-56
2023/04/21 11:26:48;;;;;;;17.60;12.57;;;16.40;99.90;;;;;;5016628;28;20061;-57
2023/04/21 11:29:15;;;;;;;16.50;11.43;;;16.40;99.90;;;;;;5015371;28;20050;-55
2023/04/21 11:31:47;;;;;;;17.98;13.43;;;16.50;99.90;;;;;;5028421;28;20038;-56
2023/04/21 11:34:14;;;;;;;16.98;12.45;;;16.40;99.90;;;;;;5019507;28;20042;-56
2023/04/21 11:36:42;;;;;;;20.80;12.70;;;16.40;99.90;;;;;;5025891;28;20063;-56
2023/04/21 11:39:10;;;;;;;20.33;11.88;;;16.40;99.90;;;;;;5035678;28;20048;-56
2023/04/21 11:41:40;;;;;;;15.50;12.00;;;16.40;99.90;;;;;;5019052;28;20405;-57
2023/04/21 11:44:06;;;;;;;19.98;12.43;;;16.40;99.90;;;;;;5035922;28;20654;-56
2023/04/21 11:46:32;;;;;;;21.35;13.27;;;16.50;99.90;;;;;;5036462;28;20347;-57
2023/04/21 11:49:05;;;;;;;16.35;12.18;;;16.60;99.90;;;;;;5033041;28;20092;-56
2023/04/21 11:51:43;;;;;;;19.65;12.80;;;16.80;99.90;;;;;;5035420;28;20037;-56
2023/04/21 11:54:11;;;;;;;22.08;13.80;;;17.10;99.90;;;;;;5027413;28;20049;-56
2023/04/21 11:56:38;;;;;;;21.98;11.88;;;17.30;99.90;;;;;;5035579;28;20068;-57
2023/04/21 11:59:21;;;;;;;15.95;12.02;;;17.50;99.90;;;;;;5032730;28;21002;-57
2023/04/21 12:01:54;;;;;;;19.00;12.45;;;17.60;99.90;;;;;;5008147;28;20076;-57
2023/04/21 12:04:24;;;;;;;21.92;12.55;;;17.70;99.90;;;;;;4999383;28;20052;-56
2023/04/21 12:07:01;;;;;;;17.65;12.40;;;17.80;99.90;;;;;;5027192;28;20433;-56
2023/04/21 12:09:28;;;;;;;16.73;13.23;;;17.80;99.90;;;;;;5029813;28;20072;-56
2023/04/21 12:11:56;;;;;;;19.25;14.05;;;17.80;99.90;;;;;;5029378;28;20041;-55
2023/04/21 12:14:23;;;;;;;18.67;12.00;;;17.90;99.90;;;;;;5038279;28;20048;-55
2023/04/21 12:16:55;;;;;;;15.18;11.80;;;17.90;99.90;;;;;;5039927;28;20052;-55
2023/04/21 12:19:41;;;;;;;18.85;12.63;;;18.00;99.90;;;;;;5039260;28;20509;-56
2023/04/21 12:22:11;;;;;;;;;;;18.00;99.90;;;;;;5039741;28;20091;-56
2023/04/21 12:24:37;;;;;;;18.92;12.65;;;18.10;99.90;;;;;;5031961;28;19925;-56
2023/04/21 12:27:04;;;;;;;20.67;13.20;;;18.20;99.90;;;;;;5034472;28;20041;-55
2023/04/21 12:29:30;;;;;;;16.73;12.90;;;18.20;99.90;;;;;;5039761;28;20140;-55
2023/04/21 12:31:55;;;;;;;19.08;14.43;;;18.30;99.90;;;;;;5032494;28;20072;-56
2023/04/21 12:34:21;;;;;;;18.45;13.05;;;18.30;99.90;;;;;;5032595;28;20053;-56